Аэропорт: Чертовицкое. Воронеж

ICAO: UUOO

METAR:
2019/05/26 14:00
UUOO 261400Z 30006MPS 9999 BKN022 18/13 Q1004 R30/090070 NOSIG RMK QFE740
METAR:
2018/12/04 17:51
TAF 
      AMD TAF 
      AMD UUOO 041549Z 0417/0524 14004MPS 0600 FZFG VV002 
      TEMPO 0418/0421 1400 FZDZ BR VV002